sensor_id;sensor_type;location;lat;lon;timestamp;P1;durP1;ratioP1;P2;durP2;ratioP2
9413;SDS011;4746;35.664;139.738;2023-09-19T00:00:50;1.23;;;1.17;;
9413;SDS011;4746;35.664;139.738;2023-09-19T00:03:23;1.17;;;1.13;;
9413;SDS011;4746;35.664;139.738;2023-09-19T00:05:54;1.50;;;1.40;;
9413;SDS011;4746;35.664;139.738;2023-09-19T00:08:23;1.77;;;1.10;;
9413;SDS011;4746;35.664;139.738;2023-09-19T00:10:51;1.50;;;1.02;;
9413;SDS011;4746;35.664;139.738;2023-09-19T00:13:21;2.15;;;1.35;;
9413;SDS011;4746;35.664;139.738;2023-09-19T00:15:50;2.33;;;1.20;;
9413;SDS011;4746;35.664;139.738;2023-09-19T00:18:20;1.90;;;1.50;;
9413;SDS011;4746;35.664;139.738;2023-09-19T00:20:49;1.58;;;1.20;;
9413;SDS011;4746;35.664;139.738;2023-09-19T00:23:18;2.05;;;1.33;;
9413;SDS011;4746;35.664;139.738;2023-09-19T00:25:46;4.38;;;1.40;;
9413;SDS011;4746;35.664;139.738;2023-09-19T00:28:15;2.15;;;1.15;;
9413;SDS011;4746;35.664;139.738;2023-09-19T00:30:45;1.83;;;1.48;;
9413;SDS011;4746;35.664;139.738;2023-09-19T00:33:15;1.67;;;1.58;;
9413;SDS011;4746;35.664;139.738;2023-09-19T00:35:54;1.50;;;1.40;;
9413;SDS011;4746;35.664;139.738;2023-09-19T00:38:29;1.80;;;1.50;;
9413;SDS011;4746;35.664;139.738;2023-09-19T00:40:57;2.17;;;1.20;;
9413;SDS011;4746;35.664;139.738;2023-09-19T00:43:25;3.90;;;1.55;;
9413;SDS011;4746;35.664;139.738;2023-09-19T00:45:55;1.25;;;1.08;;
9413;SDS011;4746;35.664;139.738;2023-09-19T00:48:26;2.55;;;1.50;;
9413;SDS011;4746;35.664;139.738;2023-09-19T00:50:54;2.22;;;1.60;;
9413;SDS011;4746;35.664;139.738;2023-09-19T00:53:32;2.10;;;1.08;;
9413;SDS011;4746;35.664;139.738;2023-09-19T00:56:02;1.10;;;1.00;;
9413;SDS011;4746;35.664;139.738;2023-09-19T00:58:33;1.73;;;0.95;;
9413;SDS011;4746;35.664;139.738;2023-09-19T01:01:04;1.40;;;1.08;;
9413;SDS011;4746;35.664;139.738;2023-09-19T01:03:33;1.98;;;0.77;;
9413;SDS011;4746;35.664;139.738;2023-09-19T01:06:01;1.63;;;0.90;;
9413;SDS011;4746;35.664;139.738;2023-09-19T01:08:29;1.20;;;0.50;;
9413;SDS011;4746;35.664;139.738;2023-09-19T01:11:01;0.73;;;0.73;;
9413;SDS011;4746;35.664;139.738;2023-09-19T01:14:06;1.67;;;0.90;;
9413;SDS011;4746;35.664;139.738;2023-09-19T01:17:05;1.05;;;0.93;;
9413;SDS011;4746;35.664;139.738;2023-09-19T01:26:11;1.25;;;0.60;;
9413;SDS011;4746;35.664;139.738;2023-09-19T01:29:13;0.70;;;0.70;;
9413;SDS011;4746;35.664;139.738;2023-09-19T01:32:03;1.40;;;0.90;;
9413;SDS011;4746;35.664;139.738;2023-09-19T01:37:18;2.40;;;0.77;;
9413;SDS011;4746;35.664;139.738;2023-09-19T01:39:53;1.55;;;0.93;;
9413;SDS011;4746;35.664;139.738;2023-09-19T01:42:58;1.25;;;1.05;;
9413;SDS011;4746;35.664;139.738;2023-09-19T01:48:54;0.77;;;0.70;;
9413;SDS011;4746;35.664;139.738;2023-09-19T01:51:58;1.08;;;0.60;;
9413;SDS011;4746;35.664;139.738;2023-09-19T01:54:51;1.15;;;0.80;;
9413;SDS011;4746;35.664;139.738;2023-09-19T02:00:02;3.17;;;0.90;;
9413;SDS011;4746;35.664;139.738;2023-09-19T02:02:44;3.10;;;1.10;;
9413;SDS011;4746;35.664;139.738;2023-09-19T02:05:21;0.95;;;0.63;;
9413;SDS011;4746;35.664;139.738;2023-09-19T02:07:53;0.82;;;0.60;;
9413;SDS011;4746;35.664;139.738;2023-09-19T02:10:24;0.70;;;0.70;;
9413;SDS011;4746;35.664;139.738;2023-09-19T02:12:51;1.80;;;1.10;;
9413;SDS011;4746;35.664;139.738;2023-09-19T02:15:19;1.80;;;1.00;;
9413;SDS011;4746;35.664;139.738;2023-09-19T02:17:47;1.48;;;0.90;;
9413;SDS011;4746;35.664;139.738;2023-09-19T02:20:15;1.10;;;1.00;;
9413;SDS011;4746;35.664;139.738;2023-09-19T02:22:45;1.08;;;0.80;;
9413;SDS011;4746;35.664;139.738;2023-09-19T02:25:15;1.58;;;1.00;;
9413;SDS011;4746;35.664;139.738;2023-09-19T02:27:43;1.60;;;0.95;;
9413;SDS011;4746;35.664;139.738;2023-09-19T02:30:10;2.08;;;0.88;;
9413;SDS011;4746;35.664;139.738;2023-09-19T02:32:40;2.03;;;0.93;;
9413;SDS011;4746;35.664;139.738;2023-09-19T02:35:08;1.40;;;0.65;;
9413;SDS011;4746;35.664;139.738;2023-09-19T02:37:36;1.75;;;0.80;;
9413;SDS011;4746;35.664;139.738;2023-09-19T02:40:04;0.70;;;0.65;;
9413;SDS011;4746;35.664;139.738;2023-09-19T02:42:44;2.70;;;1.08;;
9413;SDS011;4746;35.664;139.738;2023-09-19T02:45:18;1.05;;;1.00;;
9413;SDS011;4746;35.664;139.738;2023-09-19T02:47:49;1.75;;;0.93;;
9413;SDS011;4746;35.664;139.738;2023-09-19T02:50:16;0.50;;;0.50;;
9413;SDS011;4746;35.664;139.738;2023-09-19T02:52:44;1.35;;;0.88;;
9413;SDS011;4746;35.664;139.738;2023-09-19T02:55:17;0.70;;;0.70;;
9413;SDS011;4746;35.664;139.738;2023-09-19T02:57:51;0.80;;;0.60;;
9413;SDS011;4746;35.664;139.738;2023-09-19T03:00:23;0.80;;;0.80;;
9413;SDS011;4746;35.664;139.738;2023-09-19T03:02:55;2.35;;;1.00;;
9413;SDS011;4746;35.664;139.738;2023-09-19T03:05:23;0.95;;;0.73;;
9413;SDS011;4746;35.664;139.738;2023-09-19T03:07:51;0.60;;;0.60;;
9413;SDS011;4746;35.664;139.738;2023-09-19T03:10:21;2.95;;;0.80;;
9413;SDS011;4746;35.664;139.738;2023-09-19T03:12:51;1.67;;;0.85;;
9413;SDS011;4746;35.664;139.738;2023-09-19T03:15:19;1.63;;;0.90;;
9413;SDS011;4746;35.664;139.738;2023-09-19T03:17:47;2.17;;;0.65;;
9413;SDS011;4746;35.664;139.738;2023-09-19T03:20:17;0.95;;;0.90;;
9413;SDS011;4746;35.664;139.738;2023-09-19T03:22:46;0.80;;;0.73;;
9413;SDS011;4746;35.664;139.738;2023-09-19T03:25:14;2.22;;;0.80;;
9413;SDS011;4746;35.664;139.738;2023-09-19T03:27:42;1.67;;;0.70;;
9413;SDS011;4746;35.664;139.738;2023-09-19T03:30:10;1.27;;;0.85;;
9413;SDS011;4746;35.664;139.738;2023-09-19T03:32:48;0.95;;;0.80;;
9413;SDS011;4746;35.664;139.738;2023-09-19T03:35:16;1.05;;;0.95;;
9413;SDS011;4746;35.664;139.738;2023-09-19T03:37:44;1.17;;;0.70;;
9413;SDS011;4746;35.664;139.738;2023-09-19T03:40:12;1.60;;;0.80;;
9413;SDS011;4746;35.664;139.738;2023-09-19T03:42:41;0.88;;;0.80;;
9413;SDS011;4746;35.664;139.738;2023-09-19T03:45:09;1.75;;;0.90;;
9413;SDS011;4746;35.664;139.738;2023-09-19T03:47:38;0.70;;;0.70;;
9413;SDS011;4746;35.664;139.738;2023-09-19T03:50:06;1.08;;;0.98;;
9413;SDS011;4746;35.664;139.738;2023-09-19T03:52:36;0.85;;;0.85;;
9413;SDS011;4746;35.664;139.738;2023-09-19T03:55:04;3.92;;;1.00;;
9413;SDS011;4746;35.664;139.738;2023-09-19T03:57:31;0.90;;;0.85;;
9413;SDS011;4746;35.664;139.738;2023-09-19T04:00:01;1.13;;;0.77;;
9413;SDS011;4746;35.664;139.738;2023-09-19T04:02:37;1.10;;;1.00;;
9413;SDS011;4746;35.664;139.738;2023-09-19T04:05:05;0.90;;;0.80;;
9413;SDS011;4746;35.664;139.738;2023-09-19T04:07:33;1.58;;;0.80;;
9413;SDS011;4746;35.664;139.738;2023-09-19T04:10:00;0.80;;;0.73;;
9413;SDS011;4746;35.664;139.738;2023-09-19T04:12:30;1.23;;;0.90;;
9413;SDS011;4746;35.664;139.738;2023-09-19T04:14:57;2.25;;;0.95;;
9413;SDS011;4746;35.664;139.738;2023-09-19T04:17:25;0.98;;;0.80;;
9413;SDS011;4746;35.664;139.738;2023-09-19T04:19:53;2.40;;;0.80;;
9413;SDS011;4746;35.664;139.738;2023-09-19T04:22:20;1.00;;;0.90;;
9413;SDS011;4746;35.664;139.738;2023-09-19T04:24:47;4.03;;;1.50;;
9413;SDS011;4746;35.664;139.738;2023-09-19T04:27:15;1.58;;;0.90;;
9413;SDS011;4746;35.664;139.738;2023-09-19T04:29:44;1.50;;;1.10;;
9413;SDS011;4746;35.664;139.738;2023-09-19T04:32:11;1.85;;;0.90;;
9413;SDS011;4746;35.664;139.738;2023-09-19T04:34:39;2.38;;;0.90;;
9413;SDS011;4746;35.664;139.738;2023-09-19T04:37:06;2.80;;;1.00;;
9413;SDS011;4746;35.664;139.738;2023-09-19T04:39:34;0.70;;;0.70;;
9413;SDS011;4746;35.664;139.738;2023-09-19T04:42:01;4.22;;;1.10;;
9413;SDS011;4746;35.664;139.738;2023-09-19T04:44:29;1.27;;;0.70;;
9413;SDS011;4746;35.664;139.738;2023-09-19T04:46:57;3.72;;;1.25;;
9413;SDS011;4746;35.664;139.738;2023-09-19T04:49:25;2.70;;;1.50;;
9413;SDS011;4746;35.664;139.738;2023-09-19T04:51:52;1.95;;;1.00;;
9413;SDS011;4746;35.664;139.738;2023-09-19T04:54:21;2.38;;;1.02;;
9413;SDS011;4746;35.664;139.738;2023-09-19T04:56:48;2.15;;;1.17;;
9413;SDS011;4746;35.664;139.738;2023-09-19T04:59:16;1.13;;;0.88;;
9413;SDS011;4746;35.664;139.738;2023-09-19T05:01:43;1.02;;;0.90;;
9413;SDS011;4746;35.664;139.738;2023-09-19T05:04:12;0.98;;;0.93;;
9413;SDS011;4746;35.664;139.738;2023-09-19T05:06:39;1.63;;;0.82;;
9413;SDS011;4746;35.664;139.738;2023-09-19T05:09:08;1.30;;;1.10;;
9413;SDS011;4746;35.664;139.738;2023-09-19T05:11:36;1.60;;;1.10;;
9413;SDS011;4746;35.664;139.738;2023-09-19T05:14:04;2.42;;;0.98;;
9413;SDS011;4746;35.664;139.738;2023-09-19T05:16:31;2.10;;;0.70;;
9413;SDS011;4746;35.664;139.738;2023-09-19T05:18:59;2.55;;;1.10;;
9413;SDS011;4746;35.664;139.738;2023-09-19T05:21:27;1.48;;;1.17;;
9413;SDS011;4746;35.664;139.738;2023-09-19T05:23:55;1.90;;;1.33;;
9413;SDS011;4746;35.664;139.738;2023-09-19T05:26:23;1.15;;;1.05;;
9413;SDS011;4746;35.664;139.738;2023-09-19T05:28:54;1.15;;;1.05;;
9413;SDS011;4746;35.664;139.738;2023-09-19T05:31:22;1.63;;;1.23;;
9413;SDS011;4746;35.664;139.738;2023-09-19T05:33:51;1.52;;;1.10;;
9413;SDS011;4746;35.664;139.738;2023-09-19T05:36:20;1.23;;;1.10;;
9413;SDS011;4746;35.664;139.738;2023-09-19T05:38:47;2.03;;;1.60;;
9413;SDS011;4746;35.664;139.738;2023-09-19T05:41:18;1.60;;;1.50;;
9413;SDS011;4746;35.664;139.738;2023-09-19T05:43:48;2.55;;;1.35;;
9413;SDS011;4746;35.664;139.738;2023-09-19T05:46:16;1.75;;;1.42;;
9413;SDS011;4746;35.664;139.738;2023-09-19T05:48:44;2.03;;;1.30;;
9413;SDS011;4746;35.664;139.738;2023-09-19T05:51:13;1.45;;;1.33;;
9413;SDS011;4746;35.664;139.738;2023-09-19T05:53:42;4.03;;;1.55;;
9413;SDS011;4746;35.664;139.738;2023-09-19T05:56:10;1.45;;;1.35;;
9413;SDS011;4746;35.664;139.738;2023-09-19T05:58:39;3.08;;;1.50;;
9413;SDS011;4746;35.664;139.738;2023-09-19T06:01:09;2.05;;;1.58;;
9413;SDS011;4746;35.664;139.738;2023-09-19T06:03:37;1.42;;;1.33;;
9413;SDS011;4746;35.664;139.738;2023-09-19T06:06:05;1.60;;;1.50;;
9413;SDS011;4746;35.664;139.738;2023-09-19T06:08:33;3.22;;;1.60;;
9413;SDS011;4746;35.664;139.738;2023-09-19T06:11:01;3.13;;;1.85;;
9413;SDS011;4746;35.664;139.738;2023-09-19T06:13:30;1.92;;;1.40;;
9413;SDS011;4746;35.664;139.738;2023-09-19T06:15:59;1.67;;;1.58;;
9413;SDS011;4746;35.664;139.738;2023-09-19T06:18:33;3.65;;;1.60;;
9413;SDS011;4746;35.664;139.738;2023-09-19T06:21:01;1.77;;;1.50;;
9413;SDS011;4746;35.664;139.738;2023-09-19T06:23:33;2.42;;;1.55;;
9413;SDS011;4746;35.664;139.738;2023-09-19T06:26:01;1.98;;;1.42;;
9413;SDS011;4746;35.664;139.738;2023-09-19T06:28:32;1.90;;;1.65;;
9413;SDS011;4746;35.664;139.738;2023-09-19T06:31:01;1.60;;;1.50;;
9413;SDS011;4746;35.664;139.738;2023-09-19T06:33:33;1.77;;;1.30;;
9413;SDS011;4746;35.664;139.738;2023-09-19T06:36:04;2.45;;;1.42;;
9413;SDS011;4746;35.664;139.738;2023-09-19T06:38:32;1.75;;;1.38;;
9413;SDS011;4746;35.664;139.738;2023-09-19T06:41:02;3.90;;;2.03;;
9413;SDS011;4746;35.664;139.738;2023-09-19T06:43:33;2.05;;;1.83;;
9413;SDS011;4746;35.664;139.738;2023-09-19T06:46:01;2.78;;;1.90;;
9413;SDS011;4746;35.664;139.738;2023-09-19T06:48:29;3.58;;;1.48;;
9413;SDS011;4746;35.664;139.738;2023-09-19T06:50:58;2.03;;;1.85;;
9413;SDS011;4746;35.664;139.738;2023-09-19T06:53:33;2.97;;;2.30;;
9413;SDS011;4746;35.664;139.738;2023-09-19T06:56:01;2.92;;;1.80;;
9413;SDS011;4746;35.664;139.738;2023-09-19T06:58:29;2.50;;;2.05;;
9413;SDS011;4746;35.664;139.738;2023-09-19T07:00:57;4.43;;;1.85;;
9413;SDS011;4746;35.664;139.738;2023-09-19T07:03:24;4.00;;;2.45;;
9413;SDS011;4746;35.664;139.738;2023-09-19T07:05:54;2.95;;;2.35;;
9413;SDS011;4746;35.664;139.738;2023-09-19T07:08:21;3.75;;;2.20;;
9413;SDS011;4746;35.664;139.738;2023-09-19T07:10:49;2.30;;;2.10;;
9413;SDS011;4746;35.664;139.738;2023-09-19T07:13:18;2.63;;;2.42;;
9413;SDS011;4746;35.664;139.738;2023-09-19T07:15:45;3.25;;;2.50;;
9413;SDS011;4746;35.664;139.738;2023-09-19T07:18:15;3.08;;;2.20;;
9413;SDS011;4746;35.664;139.738;2023-09-19T07:20:45;3.53;;;3.22;;
9413;SDS011;4746;35.664;139.738;2023-09-19T07:23:16;3.20;;;2.90;;
9413;SDS011;4746;35.664;139.738;2023-09-19T07:25:49;3.13;;;2.83;;
9413;SDS011;4746;35.664;139.738;2023-09-19T07:28:16;3.10;;;2.78;;
9413;SDS011;4746;35.664;139.738;2023-09-19T07:30:45;4.13;;;2.85;;
9413;SDS011;4746;35.664;139.738;2023-09-19T07:33:12;5.43;;;3.40;;
9413;SDS011;4746;35.664;139.738;2023-09-19T07:35:40;4.07;;;2.97;;
9413;SDS011;4746;35.664;139.738;2023-09-19T07:38:13;3.92;;;3.53;;
9413;SDS011;4746;35.664;139.738;2023-09-19T07:40:43;3.47;;;3.17;;
9413;SDS011;4746;35.664;139.738;2023-09-19T07:43:10;3.15;;;2.95;;
9413;SDS011;4746;35.664;139.738;2023-09-19T07:45:38;3.38;;;3.08;;
9413;SDS011;4746;35.664;139.738;2023-09-19T07:48:08;3.88;;;3.58;;
9413;SDS011;4746;35.664;139.738;2023-09-19T07:50:40;4.70;;;4.00;;
9413;SDS011;4746;35.664;139.738;2023-09-19T07:53:11;4.13;;;3.80;;
9413;SDS011;4746;35.664;139.738;2023-09-19T07:55:43;5.03;;;3.42;;
9413;SDS011;4746;35.664;139.738;2023-09-19T07:58:13;3.80;;;3.28;;
9413;SDS011;4746;35.664;139.738;2023-09-19T08:00:41;3.83;;;3.42;;
9413;SDS011;4746;35.664;139.738;2023-09-19T08:03:09;4.40;;;4.18;;
9413;SDS011;4746;35.664;139.738;2023-09-19T08:05:40;4.75;;;4.35;;
9413;SDS011;4746;35.664;139.738;2023-09-19T08:08:09;4.70;;;4.30;;
9413;SDS011;4746;35.664;139.738;2023-09-19T08:10:39;4.80;;;4.40;;
9413;SDS011;4746;35.664;139.738;2023-09-19T08:13:08;5.93;;;5.32;;
9413;SDS011;4746;35.664;139.738;2023-09-19T08:15:42;5.53;;;5.03;;
9413;SDS011;4746;35.664;139.738;2023-09-19T08:18:10;6.10;;;5.60;;
9413;SDS011;4746;35.664;139.738;2023-09-19T08:20:38;6.03;;;5.55;;
9413;SDS011;4746;35.664;139.738;2023-09-19T08:23:07;6.20;;;5.70;;
9413;SDS011;4746;35.664;139.738;2023-09-19T08:25:35;6.55;;;5.90;;
9413;SDS011;4746;35.664;139.738;2023-09-19T08:28:04;6.80;;;6.13;;
9413;SDS011;4746;35.664;139.738;2023-09-19T08:30:34;7.05;;;6.55;;
9413;SDS011;4746;35.664;139.738;2023-09-19T08:33:05;7.82;;;7.13;;
9413;SDS011;4746;35.664;139.738;2023-09-19T08:35:33;7.50;;;6.75;;
9413;SDS011;4746;35.664;139.738;2023-09-19T08:38:01;8.35;;;7.60;;
9413;SDS011;4746;35.664;139.738;2023-09-19T08:40:32;7.53;;;6.95;;
9413;SDS011;4746;35.664;139.738;2023-09-19T08:43:09;8.00;;;7.20;;
9413;SDS011;4746;35.664;139.738;2023-09-19T08:45:36;7.57;;;6.97;;
9413;SDS011;4746;35.664;139.738;2023-09-19T08:51:08;9.00;;;8.13;;
9413;SDS011;4746;35.664;139.738;2023-09-19T08:54:03;8.85;;;8.05;;
9413;SDS011;4746;35.664;139.738;2023-09-19T08:56:35;10.93;;;8.82;;
9413;SDS011;4746;35.664;139.738;2023-09-19T08:59:05;9.98;;;8.93;;
9413;SDS011;4746;35.664;139.738;2023-09-19T09:01:33;9.68;;;8.88;;
9413;SDS011;4746;35.664;139.738;2023-09-19T09:04:05;10.15;;;9.27;;
9413;SDS011;4746;35.664;139.738;2023-09-19T09:06:38;11.15;;;10.05;;
9413;SDS011;4746;35.664;139.738;2023-09-19T09:09:08;10.18;;;9.30;;
9413;SDS011;4746;35.664;139.738;2023-09-19T09:11:36;10.57;;;9.60;;
9413;SDS011;4746;35.664;139.738;2023-09-19T09:14:09;10.40;;;9.40;;
9413;SDS011;4746;35.664;139.738;2023-09-19T09:16:37;10.32;;;9.43;;
9413;SDS011;4746;35.664;139.738;2023-09-19T09:19:05;10.68;;;9.77;;
9413;SDS011;4746;35.664;139.738;2023-09-19T09:21:32;11.07;;;10.18;;
9413;SDS011;4746;35.664;139.738;2023-09-19T09:26:59;11.25;;;10.30;;
9413;SDS011;4746;35.664;139.738;2023-09-19T09:32:19;11.27;;;10.27;;
9413;SDS011;4746;35.664;139.738;2023-09-19T09:34:57;11.95;;;10.95;;
9413;SDS011;4746;35.664;139.738;2023-09-19T09:37:28;11.63;;;10.52;;
9413;SDS011;4746;35.664;139.738;2023-09-19T09:39:57;11.70;;;10.60;;
9413;SDS011;4746;35.664;139.738;2023-09-19T09:42:40;10.90;;;9.80;;
9413;SDS011;4746;35.664;139.738;2023-09-19T09:45:19;11.15;;;10.05;;
9413;SDS011;4746;35.664;139.738;2023-09-19T09:47:58;10.00;;;9.18;;
9413;SDS011;4746;35.664;139.738;2023-09-19T09:50:39;9.95;;;9.05;;
9413;SDS011;4746;35.664;139.738;2023-09-19T09:53:21;10.95;;;10.15;;
9413;SDS011;4746;35.664;139.738;2023-09-19T09:56:03;12.18;;;10.95;;
9413;SDS011;4746;35.664;139.738;2023-09-19T09:58:37;12.13;;;11.15;;
9413;SDS011;4746;35.664;139.738;2023-09-19T10:01:24;11.35;;;10.40;;
9413;SDS011;4746;35.664;139.738;2023-09-19T10:03:57;11.25;;;10.15;;
9413;SDS011;4746;35.664;139.738;2023-09-19T10:06:25;11.40;;;10.38;;
9413;SDS011;4746;35.664;139.738;2023-09-19T10:09:12;11.05;;;10.10;;
9413;SDS011;4746;35.664;139.738;2023-09-19T10:11:57;10.68;;;9.77;;
9413;SDS011;4746;35.664;139.738;2023-09-19T10:14:38;11.60;;;10.50;;
9413;SDS011;4746;35.664;139.738;2023-09-19T10:17:12;11.45;;;10.45;;
9413;SDS011;4746;35.664;139.738;2023-09-19T10:22:24;12.43;;;11.32;;
9413;SDS011;4746;35.664;139.738;2023-09-19T10:24:57;12.27;;;11.20;;
9413;SDS011;4746;35.664;139.738;2023-09-19T10:27:29;12.65;;;11.55;;
9413;SDS011;4746;35.664;139.738;2023-09-19T10:30:04;12.57;;;11.45;;
9413;SDS011;4746;35.664;139.738;2023-09-19T10:32:36;13.35;;;11.98;;
9413;SDS011;4746;35.664;139.738;2023-09-19T10:35:08;12.80;;;11.70;;
9413;SDS011;4746;35.664;139.738;2023-09-19T10:37:38;12.48;;;11.27;;
9413;SDS011;4746;35.664;139.738;2023-09-19T10:40:10;12.90;;;11.90;;
9413;SDS011;4746;35.664;139.738;2023-09-19T10:42:38;13.18;;;11.88;;
9413;SDS011;4746;35.664;139.738;2023-09-19T10:45:10;13.57;;;12.38;;
9413;SDS011;4746;35.664;139.738;2023-09-19T10:47:41;12.38;;;11.20;;
9413;SDS011;4746;35.664;139.738;2023-09-19T10:50:08;12.38;;;10.85;;
9413;SDS011;4746;35.664;139.738;2023-09-19T10:52:49;12.10;;;11.10;;
9413;SDS011;4746;35.664;139.738;2023-09-19T10:55:25;13.55;;;12.13;;
9413;SDS011;4746;35.664;139.738;2023-09-19T10:57:58;12.18;;;11.10;;
9413;SDS011;4746;35.664;139.738;2023-09-19T11:00:26;12.32;;;11.32;;
9413;SDS011;4746;35.664;139.738;2023-09-19T11:06:05;12.00;;;11.00;;
9413;SDS011;4746;35.664;139.738;2023-09-19T11:09:05;11.65;;;10.75;;
9413;SDS011;4746;35.664;139.738;2023-09-19T11:11:48;12.23;;;11.15;;
9413;SDS011;4746;35.664;139.738;2023-09-19T11:36:03;11.82;;;10.70;;
9413;SDS011;4746;35.664;139.738;2023-09-19T11:43:54;12.05;;;10.77;;
9413;SDS011;4746;35.664;139.738;2023-09-19T11:46:54;11.20;;;10.27;;
9413;SDS011;4746;35.664;139.738;2023-09-19T11:49:30;11.00;;;9.90;;
9413;SDS011;4746;35.664;139.738;2023-09-19T11:52:00;10.48;;;9.57;;
9413;SDS011;4746;35.664;139.738;2023-09-19T11:54:35;10.57;;;9.55;;
9413;SDS011;4746;35.664;139.738;2023-09-19T11:57:07;10.50;;;9.57;;
9413;SDS011;4746;35.664;139.738;2023-09-19T11:59:38;11.20;;;10.30;;
9413;SDS011;4746;35.664;139.738;2023-09-19T12:02:07;9.95;;;9.05;;
9413;SDS011;4746;35.664;139.738;2023-09-19T12:04:41;11.45;;;10.45;;
9413;SDS011;4746;35.664;139.738;2023-09-19T12:07:16;10.60;;;9.60;;
9413;SDS011;4746;35.664;139.738;2023-09-19T12:09:47;10.35;;;9.45;;
9413;SDS011;4746;35.664;139.738;2023-09-19T12:12:39;10.95;;;9.93;;
9413;SDS011;4746;35.664;139.738;2023-09-19T12:15:28;10.10;;;9.10;;
9413;SDS011;4746;35.664;139.738;2023-09-19T12:18:04;10.63;;;9.45;;
9413;SDS011;4746;35.664;139.738;2023-09-19T12:20:45;11.30;;;10.18;;
9413;SDS011;4746;35.664;139.738;2023-09-19T12:23:13;9.98;;;9.02;;
9413;SDS011;4746;35.664;139.738;2023-09-19T12:25:44;10.80;;;9.90;;
9413;SDS011;4746;35.664;139.738;2023-09-19T12:28:19;11.30;;;9.65;;
9413;SDS011;4746;35.664;139.738;2023-09-19T12:30:49;13.68;;;9.80;;
9413;SDS011;4746;35.664;139.738;2023-09-19T12:33:18;10.27;;;9.30;;
9413;SDS011;4746;35.664;139.738;2023-09-19T12:35:46;10.63;;;9.65;;
9413;SDS011;4746;35.664;139.738;2023-09-19T12:38:26;10.48;;;9.48;;
9413;SDS011;4746;35.664;139.738;2023-09-19T12:40:55;9.90;;;8.90;;
9413;SDS011;4746;35.664;139.738;2023-09-19T12:43:25;10.23;;;9.38;;
9413;SDS011;4746;35.664;139.738;2023-09-19T12:46:02;10.57;;;9.75;;
9413;SDS011;4746;35.664;139.738;2023-09-19T12:48:30;10.10;;;9.20;;
9413;SDS011;4746;35.664;139.738;2023-09-19T12:51:00;10.82;;;9.30;;
9413;SDS011;4746;35.664;139.738;2023-09-19T12:53:39;10.02;;;9.13;;
9413;SDS011;4746;35.664;139.738;2023-09-19T12:56:11;9.90;;;9.10;;
9413;SDS011;4746;35.664;139.738;2023-09-19T13:01:31;9.90;;;9.00;;
9413;SDS011;4746;35.664;139.738;2023-09-19T13:04:12;10.30;;;9.30;;
9413;SDS011;4746;35.664;139.738;2023-09-19T13:06:55;10.18;;;9.27;;
9413;SDS011;4746;35.664;139.738;2023-09-19T13:09:27;8.77;;;7.97;;
9413;SDS011;4746;35.664;139.738;2023-09-19T13:12:00;10.57;;;9.52;;
9413;SDS011;4746;35.664;139.738;2023-09-19T13:14:32;10.48;;;9.50;;
9413;SDS011;4746;35.664;139.738;2023-09-19T13:17:06;9.20;;;8.38;;
9413;SDS011;4746;35.664;139.738;2023-09-19T13:19:41;10.07;;;9.27;;
9413;SDS011;4746;35.664;139.738;2023-09-19T13:22:42;10.02;;;9.10;;
9413;SDS011;4746;35.664;139.738;2023-09-19T13:25:23;10.15;;;9.15;;
9413;SDS011;4746;35.664;139.738;2023-09-19T13:27:54;9.95;;;9.02;;
9413;SDS011;4746;35.664;139.738;2023-09-19T13:30:25;9.52;;;8.68;;
9413;SDS011;4746;35.664;139.738;2023-09-19T13:33:08;10.10;;;9.30;;
9413;SDS011;4746;35.664;139.738;2023-09-19T13:35:42;10.48;;;9.50;;
9413;SDS011;4746;35.664;139.738;2023-09-19T13:38:10;10.15;;;9.15;;
9413;SDS011;4746;35.664;139.738;2023-09-19T13:40:38;9.80;;;9.10;;
9413;SDS011;4746;35.664;139.738;2023-09-19T13:43:09;9.95;;;9.05;;
9413;SDS011;4746;35.664;139.738;2023-09-19T13:45:40;10.25;;;9.07;;
9413;SDS011;4746;35.664;139.738;2023-09-19T13:48:08;10.18;;;9.27;;
9413;SDS011;4746;35.664;139.738;2023-09-19T13:50:40;10.85;;;9.88;;
9413;SDS011;4746;35.664;139.738;2023-09-19T13:53:08;9.73;;;8.88;;
9413;SDS011;4746;35.664;139.738;2023-09-19T13:55:37;10.02;;;9.13;;
9413;SDS011;4746;35.664;139.738;2023-09-19T13:58:08;9.98;;;9.18;;
9413;SDS011;4746;35.664;139.738;2023-09-19T14:00:37;9.60;;;8.70;;
9413;SDS011;4746;35.664;139.738;2023-09-19T14:03:14;10.68;;;9.23;;
9413;SDS011;4746;35.664;139.738;2023-09-19T14:05:42;10.10;;;9.25;;
9413;SDS011;4746;35.664;139.738;2023-09-19T14:08:15;10.32;;;9.35;;
9413;SDS011;4746;35.664;139.738;2023-09-19T14:10:47;10.15;;;9.23;;
9413;SDS011;4746;35.664;139.738;2023-09-19T14:13:16;10.70;;;9.80;;
9413;SDS011;4746;35.664;139.738;2023-09-19T14:15:49;9.90;;;9.10;;
9413;SDS011;4746;35.664;139.738;2023-09-19T14:18:16;10.52;;;9.73;;
9413;SDS011;4746;35.664;139.738;2023-09-19T14:20:47;10.95;;;9.85;;
9413;SDS011;4746;35.664;139.738;2023-09-19T14:23:23;10.25;;;9.13;;
9413;SDS011;4746;35.664;139.738;2023-09-19T14:26:02;10.07;;;9.07;;
9413;SDS011;4746;35.664;139.738;2023-09-19T14:28:31;10.27;;;9.38;;
9413;SDS011;4746;35.664;139.738;2023-09-19T14:31:06;10.25;;;9.32;;
9413;SDS011;4746;35.664;139.738;2023-09-19T14:33:55;10.00;;;9.23;;
9413;SDS011;4746;35.664;139.738;2023-09-19T14:36:30;10.15;;;9.15;;
9413;SDS011;4746;35.664;139.738;2023-09-19T14:39:07;10.80;;;9.77;;
9413;SDS011;4746;35.664;139.738;2023-09-19T14:41:46;11.18;;;10.07;;
9413;SDS011;4746;35.664;139.738;2023-09-19T14:44:16;10.85;;;9.85;;
9413;SDS011;4746;35.664;139.738;2023-09-19T14:46:53;10.90;;;9.80;;
9413;SDS011;4746;35.664;139.738;2023-09-19T14:52:20;11.18;;;10.13;;
9413;SDS011;4746;35.664;139.738;2023-09-19T14:55:31;13.88;;;12.38;;
9413;SDS011;4746;35.664;139.738;2023-09-19T14:58:06;14.07;;;11.82;;
9413;SDS011;4746;35.664;139.738;2023-09-19T15:00:43;13.90;;;12.50;;
9413;SDS011;4746;35.664;139.738;2023-09-19T15:03:35;14.30;;;12.88;;
9413;SDS011;4746;35.664;139.738;2023-09-19T15:06:12;14.27;;;12.93;;
9413;SDS011;4746;35.664;139.738;2023-09-19T15:08:47;14.80;;;13.38;;
9413;SDS011;4746;35.664;139.738;2023-09-19T15:11:44;16.05;;;13.52;;
9413;SDS011;4746;35.664;139.738;2023-09-19T15:14:26;14.55;;;13.10;;
9413;SDS011;4746;35.664;139.738;2023-09-19T15:16:59;15.30;;;13.57;;
9413;SDS011;4746;35.664;139.738;2023-09-19T15:19:30;15.35;;;12.30;;
9413;SDS011;4746;35.664;139.738;2023-09-19T15:22:04;13.52;;;12.48;;
9413;SDS011;4746;35.664;139.738;2023-09-19T15:24:34;14.10;;;12.45;;
9413;SDS011;4746;35.664;139.738;2023-09-19T15:27:25;13.63;;;12.40;;
9413;SDS011;4746;35.664;139.738;2023-09-19T15:30:20;13.55;;;12.32;;
9413;SDS011;4746;35.664;139.738;2023-09-19T15:32:48;14.43;;;12.80;;
9413;SDS011;4746;35.664;139.738;2023-09-19T15:35:27;14.10;;;12.90;;
9413;SDS011;4746;35.664;139.738;2023-09-19T15:38:04;13.43;;;12.02;;
9413;SDS011;4746;35.664;139.738;2023-09-19T15:40:35;13.57;;;12.27;;
9413;SDS011;4746;35.664;139.738;2023-09-19T15:43:14;14.07;;;12.73;;
9413;SDS011;4746;35.664;139.738;2023-09-19T15:45:47;14.75;;;13.23;;
9413;SDS011;4746;35.664;139.738;2023-09-19T15:48:41;12.48;;;11.38;;
9413;SDS011;4746;35.664;139.738;2023-09-19T15:51:15;12.77;;;11.52;;
9413;SDS011;4746;35.664;139.738;2023-09-19T15:53:49;13.20;;;11.80;;
9413;SDS011;4746;35.664;139.738;2023-09-19T15:56:22;12.75;;;11.55;;
9413;SDS011;4746;35.664;139.738;2023-09-19T15:58:56;13.27;;;11.98;;
9413;SDS011;4746;35.664;139.738;2023-09-19T16:01:27;12.52;;;11.27;;
9413;SDS011;4746;35.664;139.738;2023-09-19T16:04:06;12.07;;;11.07;;
9413;SDS011;4746;35.664;139.738;2023-09-19T16:07:04;12.63;;;11.50;;
9413;SDS011;4746;35.664;139.738;2023-09-19T16:09:41;12.98;;;11.75;;
9413;SDS011;4746;35.664;139.738;2023-09-19T16:12:18;12.38;;;11.23;;
9413;SDS011;4746;35.664;139.738;2023-09-19T16:14:52;12.93;;;10.77;;